<?xml version="1.0" encoding="utf-8"?>
<gpx xmlns:xsi="http://www.w3.org/2001/XMLSchema-instance" xmlns:xsd="http://www.w3.org/2001/XMLSchema" version="1.1" creator="Shapelink.com" xmlns="http://www.topografix.com/GPX/1/1" xmlns:gpxtpx="http://www.garmin.com/xmlschemas/TrackPointExtension/v1">
  <metadata>
    <name>Løping 5.09 km, 2012-08-21</name>
    <desc></desc>
    <author><name>Mikael Blom</name></author> 
    <time>2012-08-21T17:58:41Z</time>
  </metadata>
  <trk>
    <name>Løping 5.09 km, 2012-08-21</name>
    <trkseg>
      <trkpt lat="59.9803342" lon="17.7429255">
        <ele>46.2806</ele>
        <time>2012-08-21T17:58:41Z</time>
      </trkpt>
      <trkpt lat="59.9804394" lon="17.7432228">
        <ele>60.2197</ele>
        <time>2012-08-21T17:58:47Z</time>
      </trkpt>
      <trkpt lat="59.9805228" lon="17.7434772">
        <ele>64.5457</ele>
        <time>2012-08-21T17:58:52Z</time>
      </trkpt>
      <trkpt lat="59.9805274" lon="17.7435963">
        <ele>61.6617</ele>
        <time>2012-08-21T17:58:54Z</time>
      </trkpt>
      <trkpt lat="59.980514" lon="17.7438189">
        <ele>60.7003</ele>
        <time>2012-08-21T17:58:59Z</time>
      </trkpt>
      <trkpt lat="59.9804863" lon="17.7441335">
        <ele>57.3358</ele>
        <time>2012-08-21T17:59:05Z</time>
      </trkpt>
      <trkpt lat="59.980454" lon="17.7443863">
        <ele>53.9712</ele>
        <time>2012-08-21T17:59:10Z</time>
      </trkpt>
      <trkpt lat="59.9804973" lon="17.7445871">
        <ele>48.2034</ele>
        <time>2012-08-21T17:59:15Z</time>
      </trkpt>
      <trkpt lat="59.9805077" lon="17.744623">
        <ele>47.2418</ele>
        <time>2012-08-21T17:59:16Z</time>
      </trkpt>
      <trkpt lat="59.9806465" lon="17.7447457">
        <ele>46.7612</ele>
        <time>2012-08-21T17:59:22Z</time>
      </trkpt>
      <trkpt lat="59.9806657" lon="17.7447629">
        <ele>45.7999</ele>
        <time>2012-08-21T17:59:23Z</time>
      </trkpt>
      <trkpt lat="59.9808357" lon="17.7448917">
        <ele>49.1646</ele>
        <time>2012-08-21T17:59:29Z</time>
      </trkpt>
      <trkpt lat="59.9809081" lon="17.7450809">
        <ele>52.5292</ele>
        <time>2012-08-21T17:59:35Z</time>
      </trkpt>
      <trkpt lat="59.9809347" lon="17.7451812">
        <ele>52.5292</ele>
        <time>2012-08-21T17:59:38Z</time>
      </trkpt>
      <trkpt lat="59.9809956" lon="17.7453452">
        <ele>49.6453</ele>
        <time>2012-08-21T17:59:43Z</time>
      </trkpt>
      <trkpt lat="59.9810312" lon="17.7455575">
        <ele>46.7612</ele>
        <time>2012-08-21T17:59:48Z</time>
      </trkpt>
      <trkpt lat="59.981091" lon="17.7456987">
        <ele>45.7999</ele>
        <time>2012-08-21T17:59:52Z</time>
      </trkpt>
      <trkpt lat="59.9811993" lon="17.7459352">
        <ele>44.358</ele>
        <time>2012-08-21T17:59:59Z</time>
      </trkpt>
      <trkpt lat="59.9812281" lon="17.7461045">
        <ele>44.358</ele>
        <time>2012-08-21T18:00:03Z</time>
      </trkpt>
      <trkpt lat="59.9812469" lon="17.7463331">
        <ele>43.3966</ele>
        <time>2012-08-21T18:00:08Z</time>
      </trkpt>
      <trkpt lat="59.9812633" lon="17.7465658">
        <ele>43.8773</ele>
        <time>2012-08-21T18:00:13Z</time>
      </trkpt>
      <trkpt lat="59.9813064" lon="17.746777">
        <ele>49.1646</ele>
        <time>2012-08-21T18:00:18Z</time>
      </trkpt>
      <trkpt lat="59.9813427" lon="17.7469598">
        <ele>45.7999</ele>
        <time>2012-08-21T18:00:22Z</time>
      </trkpt>
      <trkpt lat="59.981367" lon="17.7471509">
        <ele>43.3966</ele>
        <time>2012-08-21T18:00:27Z</time>
      </trkpt>
      <trkpt lat="59.981418" lon="17.7473581">
        <ele>40.0321</ele>
        <time>2012-08-21T18:00:32Z</time>
      </trkpt>
      <trkpt lat="59.9815188" lon="17.7474814">
        <ele>38.1094</ele>
        <time>2012-08-21T18:00:36Z</time>
      </trkpt>
      <trkpt lat="59.9816054" lon="17.7475166">
        <ele>39.0707</ele>
        <time>2012-08-21T18:00:40Z</time>
      </trkpt>
      <trkpt lat="59.9817489" lon="17.7475732">
        <ele>38.5901</ele>
        <time>2012-08-21T18:00:47Z</time>
      </trkpt>
      <trkpt lat="59.9819693" lon="17.7476819">
        <ele>54.4518</ele>
        <time>2012-08-21T18:00:53Z</time>
      </trkpt>
      <trkpt lat="59.9821165" lon="17.7477881">
        <ele>60.2197</ele>
        <time>2012-08-21T18:00:58Z</time>
      </trkpt>
      <trkpt lat="59.9823574" lon="17.7479361">
        <ele>67.4297</ele>
        <time>2012-08-21T18:01:05Z</time>
      </trkpt>
      <trkpt lat="59.9824487" lon="17.7480486">
        <ele>70.3135</ele>
        <time>2012-08-21T18:01:09Z</time>
      </trkpt>
      <trkpt lat="59.982542" lon="17.74818">
        <ele>77.0428</ele>
        <time>2012-08-21T18:01:13Z</time>
      </trkpt>
      <trkpt lat="59.9825985" lon="17.748288">
        <ele>75.1202</ele>
        <time>2012-08-21T18:01:16Z</time>
      </trkpt>
      <trkpt lat="59.9826077" lon="17.7484168">
        <ele>72.2362</ele>
        <time>2012-08-21T18:01:20Z</time>
      </trkpt>
      <trkpt lat="59.9827062" lon="17.7485941">
        <ele>75.6008</ele>
        <time>2012-08-21T18:01:26Z</time>
      </trkpt>
      <trkpt lat="59.9827667" lon="17.7488417">
        <ele>69.8329</ele>
        <time>2012-08-21T18:01:31Z</time>
      </trkpt>
      <trkpt lat="59.9828838" lon="17.7490064">
        <ele>74.1588</ele>
        <time>2012-08-21T18:01:37Z</time>
      </trkpt>
      <trkpt lat="59.9829741" lon="17.749168">
        <ele>69.8329</ele>
        <time>2012-08-21T18:01:42Z</time>
      </trkpt>
      <trkpt lat="59.9830497" lon="17.7493325">
        <ele>65.9877</ele>
        <time>2012-08-21T18:01:47Z</time>
      </trkpt>
      <trkpt lat="59.9831028" lon="17.7494786">
        <ele>65.0264</ele>
        <time>2012-08-21T18:01:51Z</time>
      </trkpt>
      <trkpt lat="59.9831792" lon="17.7497077">
        <ele>60.7003</ele>
        <time>2012-08-21T18:01:57Z</time>
      </trkpt>
      <trkpt lat="59.98324" lon="17.7498585">
        <ele>56.8551</ele>
        <time>2012-08-21T18:02:01Z</time>
      </trkpt>
      <trkpt lat="59.9833126" lon="17.7500652">
        <ele>49.1646</ele>
        <time>2012-08-21T18:02:07Z</time>
      </trkpt>
      <trkpt lat="59.9833595" lon="17.7502049">
        <ele>46.2806</ele>
        <time>2012-08-21T18:02:11Z</time>
      </trkpt>
      <trkpt lat="59.9833959" lon="17.7504333">
        <ele>42.4354</ele>
        <time>2012-08-21T18:02:17Z</time>
      </trkpt>
      <trkpt lat="59.9834716" lon="17.7505931">
        <ele>41.474</ele>
        <time>2012-08-21T18:02:21Z</time>
      </trkpt>
      <trkpt lat="59.9835702" lon="17.7507408">
        <ele>41.474</ele>
        <time>2012-08-21T18:02:25Z</time>
      </trkpt>
      <trkpt lat="59.983698" lon="17.7509598">
        <ele>40.5128</ele>
        <time>2012-08-21T18:02:32Z</time>
      </trkpt>
      <trkpt lat="59.9837986" lon="17.751127">
        <ele>39.5513</ele>
        <time>2012-08-21T18:02:37Z</time>
      </trkpt>
      <trkpt lat="59.9840194" lon="17.7512946">
        <ele>44.8386</ele>
        <time>2012-08-21T18:02:45Z</time>
      </trkpt>
      <trkpt lat="59.9841603" lon="17.7513649">
        <ele>52.5292</ele>
        <time>2012-08-21T18:02:50Z</time>
      </trkpt>
      <trkpt lat="59.9842988" lon="17.7514347">
        <ele>58.2971</ele>
        <time>2012-08-21T18:02:55Z</time>
      </trkpt>
      <trkpt lat="59.9844447" lon="17.7515939">
        <ele>57.3358</ele>
        <time>2012-08-21T18:03:01Z</time>
      </trkpt>
      <trkpt lat="59.9845668" lon="17.7517411">
        <ele>55.8938</ele>
        <time>2012-08-21T18:03:06Z</time>
      </trkpt>
      <trkpt lat="59.9846436" lon="17.7518554">
        <ele>54.9324</ele>
        <time>2012-08-21T18:03:10Z</time>
      </trkpt>
      <trkpt lat="59.984712" lon="17.7519466">
        <ele>53.4905</ele>
        <time>2012-08-21T18:03:14Z</time>
      </trkpt>
      <trkpt lat="59.9848055" lon="17.7520399">
        <ele>52.0486</ele>
        <time>2012-08-21T18:03:18Z</time>
      </trkpt>
      <trkpt lat="59.9849181" lon="17.7521698">
        <ele>54.4518</ele>
        <time>2012-08-21T18:03:23Z</time>
      </trkpt>
      <trkpt lat="59.9849941" lon="17.7523095">
        <ele>56.8551</ele>
        <time>2012-08-21T18:03:28Z</time>
      </trkpt>
      <trkpt lat="59.9850819" lon="17.7525055">
        <ele>61.6617</ele>
        <time>2012-08-21T18:03:34Z</time>
      </trkpt>
      <trkpt lat="59.9850957" lon="17.752536">
        <ele>62.6229</ele>
        <time>2012-08-21T18:03:35Z</time>
      </trkpt>
      <trkpt lat="59.9851535" lon="17.7527708">
        <ele>63.1036</ele>
        <time>2012-08-21T18:03:41Z</time>
      </trkpt>
      <trkpt lat="59.9852167" lon="17.7529795">
        <ele>65.0264</ele>
        <time>2012-08-21T18:03:46Z</time>
      </trkpt>
      <trkpt lat="59.9852302" lon="17.7530178">
        <ele>65.5071</ele>
        <time>2012-08-21T18:03:47Z</time>
      </trkpt>
      <trkpt lat="59.9853229" lon="17.7532354">
        <ele>63.1036</ele>
        <time>2012-08-21T18:03:52Z</time>
      </trkpt>
      <trkpt lat="59.9853685" lon="17.7535659">
        <ele>54.9324</ele>
        <time>2012-08-21T18:04:00Z</time>
      </trkpt>
      <trkpt lat="59.9854505" lon="17.7538232">
        <ele>53.4905</ele>
        <time>2012-08-21T18:04:06Z</time>
      </trkpt>
      <trkpt lat="59.9855393" lon="17.7539996">
        <ele>52.0486</ele>
        <time>2012-08-21T18:04:11Z</time>
      </trkpt>
      <trkpt lat="59.9856535" lon="17.7541646">
        <ele>51.5679</ele>
        <time>2012-08-21T18:04:17Z</time>
      </trkpt>
      <trkpt lat="59.9857309" lon="17.7542857">
        <ele>51.5679</ele>
        <time>2012-08-21T18:04:21Z</time>
      </trkpt>
      <trkpt lat="59.9858215" lon="17.7544496">
        <ele>48.684</ele>
        <time>2012-08-21T18:04:26Z</time>
      </trkpt>
      <trkpt lat="59.9858935" lon="17.7545984">
        <ele>52.0486</ele>
        <time>2012-08-21T18:04:30Z</time>
      </trkpt>
      <trkpt lat="59.9859214" lon="17.7546839">
        <ele>53.0098</ele>
        <time>2012-08-21T18:04:32Z</time>
      </trkpt>
      <trkpt lat="59.985999" lon="17.754891">
        <ele>53.9712</ele>
        <time>2012-08-21T18:04:37Z</time>
      </trkpt>
      <trkpt lat="59.9860454" lon="17.7549883">
        <ele>56.3745</ele>
        <time>2012-08-21T18:04:39Z</time>
      </trkpt>
      <trkpt lat="59.9860994" lon="17.7552097">
        <ele>54.9324</ele>
        <time>2012-08-21T18:04:44Z</time>
      </trkpt>
      <trkpt lat="59.9861388" lon="17.7554645">
        <ele>57.8165</ele>
        <time>2012-08-21T18:04:49Z</time>
      </trkpt>
      <trkpt lat="59.9861799" lon="17.7556906">
        <ele>59.2584</ele>
        <time>2012-08-21T18:04:54Z</time>
      </trkpt>
      <trkpt lat="59.9861985" lon="17.7558641">
        <ele>57.3358</ele>
        <time>2012-08-21T18:04:58Z</time>
      </trkpt>
      <trkpt lat="59.9862223" lon="17.756119">
        <ele>53.9712</ele>
        <time>2012-08-21T18:05:04Z</time>
      </trkpt>
      <trkpt lat="59.9862389" lon="17.7562526">
        <ele>52.5292</ele>
        <time>2012-08-21T18:05:07Z</time>
      </trkpt>
      <trkpt lat="59.9862891" lon="17.7565175">
        <ele>53.0098</ele>
        <time>2012-08-21T18:05:13Z</time>
      </trkpt>
      <trkpt lat="59.9863051" lon="17.7567024">
        <ele>52.5292</ele>
        <time>2012-08-21T18:05:17Z</time>
      </trkpt>
      <trkpt lat="59.9863405" lon="17.756967">
        <ele>47.7225</ele>
        <time>2012-08-21T18:05:23Z</time>
      </trkpt>
      <trkpt lat="59.9864063" lon="17.7571736">
        <ele>48.2034</ele>
        <time>2012-08-21T18:05:28Z</time>
      </trkpt>
      <trkpt lat="59.9864668" lon="17.7573567">
        <ele>46.2806</ele>
        <time>2012-08-21T18:05:33Z</time>
      </trkpt>
      <trkpt lat="59.9865177" lon="17.7576166">
        <ele>45.3192</ele>
        <time>2012-08-21T18:05:39Z</time>
      </trkpt>
      <trkpt lat="59.9866294" lon="17.7578553">
        <ele>45.7999</ele>
        <time>2012-08-21T18:05:45Z</time>
      </trkpt>
      <trkpt lat="59.9867565" lon="17.7580374">
        <ele>43.8773</ele>
        <time>2012-08-21T18:05:51Z</time>
      </trkpt>
      <trkpt lat="59.9868735" lon="17.7581779">
        <ele>46.2806</ele>
        <time>2012-08-21T18:05:56Z</time>
      </trkpt>
      <trkpt lat="59.986884" lon="17.7582082">
        <ele>45.7999</ele>
        <time>2012-08-21T18:05:57Z</time>
      </trkpt>
      <trkpt lat="59.9869871" lon="17.7583844">
        <ele>51.0872</ele>
        <time>2012-08-21T18:06:02Z</time>
      </trkpt>
      <trkpt lat="59.987003" lon="17.7584285">
        <ele>51.5679</ele>
        <time>2012-08-21T18:06:03Z</time>
      </trkpt>
      <trkpt lat="59.9870828" lon="17.7587446">
        <ele>55.4131</ele>
        <time>2012-08-21T18:06:10Z</time>
      </trkpt>
      <trkpt lat="59.9871749" lon="17.7589916">
        <ele>59.7391</ele>
        <time>2012-08-21T18:06:16Z</time>
      </trkpt>
      <trkpt lat="59.9872406" lon="17.7592117">
        <ele>60.2197</ele>
        <time>2012-08-21T18:06:22Z</time>
      </trkpt>
      <trkpt lat="59.9872606" lon="17.7593947">
        <ele>56.8551</ele>
        <time>2012-08-21T18:06:26Z</time>
      </trkpt>
      <trkpt lat="59.9873235" lon="17.7595945">
        <ele>55.8938</ele>
        <time>2012-08-21T18:06:31Z</time>
      </trkpt>
      <trkpt lat="59.9873984" lon="17.7597656">
        <ele>58.7777</ele>
        <time>2012-08-21T18:06:35Z</time>
      </trkpt>
      <trkpt lat="59.9874339" lon="17.7600525">
        <ele>61.6617</ele>
        <time>2012-08-21T18:06:41Z</time>
      </trkpt>
      <trkpt lat="59.9873978" lon="17.7603566">
        <ele>57.8165</ele>
        <time>2012-08-21T18:06:47Z</time>
      </trkpt>
      <trkpt lat="59.9874506" lon="17.7606874">
        <ele>60.7003</ele>
        <time>2012-08-21T18:06:54Z</time>
      </trkpt>
      <trkpt lat="59.9874641" lon="17.7607334">
        <ele>61.181</ele>
        <time>2012-08-21T18:06:55Z</time>
      </trkpt>
      <trkpt lat="59.9875411" lon="17.7609564">
        <ele>61.6617</ele>
        <time>2012-08-21T18:07:00Z</time>
      </trkpt>
      <trkpt lat="59.9875729" lon="17.7611806">
        <ele>57.3358</ele>
        <time>2012-08-21T18:07:05Z</time>
      </trkpt>
      <trkpt lat="59.9876018" lon="17.7614131">
        <ele>51.0872</ele>
        <time>2012-08-21T18:07:10Z</time>
      </trkpt>
      <trkpt lat="59.9876283" lon="17.7615013">
        <ele>49.6453</ele>
        <time>2012-08-21T18:07:12Z</time>
      </trkpt>
      <trkpt lat="59.9877545" lon="17.7616904">
        <ele>44.8386</ele>
        <time>2012-08-21T18:07:19Z</time>
      </trkpt>
      <trkpt lat="59.9878665" lon="17.7617649">
        <ele>41.9547</ele>
        <time>2012-08-21T18:07:24Z</time>
      </trkpt>
      <trkpt lat="59.9880811" lon="17.7618629">
        <ele>44.358</ele>
        <time>2012-08-21T18:07:32Z</time>
      </trkpt>
      <trkpt lat="59.9882348" lon="17.7618795">
        <ele>47.7225</ele>
        <time>2012-08-21T18:07:38Z</time>
      </trkpt>
      <trkpt lat="59.9883552" lon="17.7619091">
        <ele>48.684</ele>
        <time>2012-08-21T18:07:43Z</time>
      </trkpt>
      <trkpt lat="59.9884429" lon="17.7619819">
        <ele>48.684</ele>
        <time>2012-08-21T18:07:47Z</time>
      </trkpt>
      <trkpt lat="59.9885646" lon="17.7621051">
        <ele>49.1646</ele>
        <time>2012-08-21T18:07:53Z</time>
      </trkpt>
      <trkpt lat="59.9886747" lon="17.7622492">
        <ele>47.2418</ele>
        <time>2012-08-21T18:07:59Z</time>
      </trkpt>
      <trkpt lat="59.9887755" lon="17.7623606">
        <ele>46.7612</ele>
        <time>2012-08-21T18:08:04Z</time>
      </trkpt>
      <trkpt lat="59.9888948" lon="17.7624648">
        <ele>46.2806</ele>
        <time>2012-08-21T18:08:10Z</time>
      </trkpt>
      <trkpt lat="59.9890373" lon="17.7624844">
        <ele>46.7612</ele>
        <time>2012-08-21T18:08:16Z</time>
      </trkpt>
      <trkpt lat="59.9891653" lon="17.7624845">
        <ele>48.2034</ele>
        <time>2012-08-21T18:08:21Z</time>
      </trkpt>
      <trkpt lat="59.9893365" lon="17.7624327">
        <ele>49.6453</ele>
        <time>2012-08-21T18:08:27Z</time>
      </trkpt>
      <trkpt lat="59.9894855" lon="17.7624501">
        <ele>49.6453</ele>
        <time>2012-08-21T18:08:34Z</time>
      </trkpt>
      <trkpt lat="59.9896248" lon="17.7625218">
        <ele>51.5679</ele>
        <time>2012-08-21T18:08:40Z</time>
      </trkpt>
      <trkpt lat="59.9897345" lon="17.7625871">
        <ele>50.6066</ele>
        <time>2012-08-21T18:08:45Z</time>
      </trkpt>
      <trkpt lat="59.9898695" lon="17.7626663">
        <ele>47.2418</ele>
        <time>2012-08-21T18:08:51Z</time>
      </trkpt>
      <trkpt lat="59.9899824" lon="17.7627483">
        <ele>45.3192</ele>
        <time>2012-08-21T18:08:56Z</time>
      </trkpt>
      <trkpt lat="59.9900728" lon="17.7627921">
        <ele>43.8773</ele>
        <time>2012-08-21T18:09:00Z</time>
      </trkpt>
      <trkpt lat="59.9902285" lon="17.7629249">
        <ele>41.9547</ele>
        <time>2012-08-21T18:09:07Z</time>
      </trkpt>
      <trkpt lat="59.9903405" lon="17.7629998">
        <ele>43.3966</ele>
        <time>2012-08-21T18:09:11Z</time>
      </trkpt>
      <trkpt lat="59.9904808" lon="17.7631491">
        <ele>46.7612</ele>
        <time>2012-08-21T18:09:16Z</time>
      </trkpt>
      <trkpt lat="59.9905966" lon="17.7633235">
        <ele>43.8773</ele>
        <time>2012-08-21T18:09:22Z</time>
      </trkpt>
      <trkpt lat="59.990697" lon="17.7634479">
        <ele>42.4354</ele>
        <time>2012-08-21T18:09:27Z</time>
      </trkpt>
      <trkpt lat="59.9907923" lon="17.7635553">
        <ele>42.4354</ele>
        <time>2012-08-21T18:09:31Z</time>
      </trkpt>
      <trkpt lat="59.9908741" lon="17.7636619">
        <ele>42.4354</ele>
        <time>2012-08-21T18:09:35Z</time>
      </trkpt>
      <trkpt lat="59.9909923" lon="17.7637998">
        <ele>42.4354</ele>
        <time>2012-08-21T18:09:41Z</time>
      </trkpt>
      <trkpt lat="59.9910554" lon="17.7639638">
        <ele>39.0707</ele>
        <time>2012-08-21T18:09:46Z</time>
      </trkpt>
      <trkpt lat="59.9911558" lon="17.7641747">
        <ele>40.9934</ele>
        <time>2012-08-21T18:09:52Z</time>
      </trkpt>
      <trkpt lat="59.9912024" lon="17.7643476">
        <ele>40.5128</ele>
        <time>2012-08-21T18:09:56Z</time>
      </trkpt>
      <trkpt lat="59.9912808" lon="17.7645708">
        <ele>45.7999</ele>
        <time>2012-08-21T18:10:01Z</time>
      </trkpt>
      <trkpt lat="59.9913526" lon="17.7647415">
        <ele>52.5292</ele>
        <time>2012-08-21T18:10:05Z</time>
      </trkpt>
      <trkpt lat="59.9914071" lon="17.7649207">
        <ele>52.0486</ele>
        <time>2012-08-21T18:10:09Z</time>
      </trkpt>
      <trkpt lat="59.9915548" lon="17.7649179">
        <ele>54.4518</ele>
        <time>2012-08-21T18:10:15Z</time>
      </trkpt>
      <trkpt lat="59.9917214" lon="17.764739">
        <ele>54.4518</ele>
        <time>2012-08-21T18:10:22Z</time>
      </trkpt>
      <trkpt lat="59.9918522" lon="17.7645104">
        <ele>53.9712</ele>
        <time>2012-08-21T18:10:28Z</time>
      </trkpt>
      <trkpt lat="59.991988" lon="17.764317">
        <ele>55.8938</ele>
        <time>2012-08-21T18:10:34Z</time>
      </trkpt>
      <trkpt lat="59.9921118" lon="17.7641088">
        <ele>53.9712</ele>
        <time>2012-08-21T18:10:41Z</time>
      </trkpt>
      <trkpt lat="59.9922016" lon="17.7639404">
        <ele>51.0872</ele>
        <time>2012-08-21T18:10:47Z</time>
      </trkpt>
      <trkpt lat="59.9923155" lon="17.7638065">
        <ele>49.6453</ele>
        <time>2012-08-21T18:10:53Z</time>
      </trkpt>
      <trkpt lat="59.9924335" lon="17.7636614">
        <ele>49.6453</ele>
        <time>2012-08-21T18:10:59Z</time>
      </trkpt>
      <trkpt lat="59.9925374" lon="17.7634884">
        <ele>48.684</ele>
        <time>2012-08-21T18:11:05Z</time>
      </trkpt>
      <trkpt lat="59.9926015" lon="17.7633298">
        <ele>46.2806</ele>
        <time>2012-08-21T18:11:11Z</time>
      </trkpt>
      <trkpt lat="59.9926585" lon="17.7631885">
        <ele>45.7999</ele>
        <time>2012-08-21T18:11:15Z</time>
      </trkpt>
      <trkpt lat="59.9927062" lon="17.7629761">
        <ele>46.7612</ele>
        <time>2012-08-21T18:11:20Z</time>
      </trkpt>
      <trkpt lat="59.992753" lon="17.7626925">
        <ele>47.7225</ele>
        <time>2012-08-21T18:11:26Z</time>
      </trkpt>
      <trkpt lat="59.9927725" lon="17.7624206">
        <ele>48.2034</ele>
        <time>2012-08-21T18:11:32Z</time>
      </trkpt>
      <trkpt lat="59.9927851" lon="17.7621798">
        <ele>49.6453</ele>
        <time>2012-08-21T18:11:36Z</time>
      </trkpt>
      <trkpt lat="59.9928067" lon="17.7619618">
        <ele>48.2034</ele>
        <time>2012-08-21T18:11:40Z</time>
      </trkpt>
      <trkpt lat="59.9928141" lon="17.7616948">
        <ele>48.2034</ele>
        <time>2012-08-21T18:11:46Z</time>
      </trkpt>
      <trkpt lat="59.9928311" lon="17.7614535">
        <ele>49.6453</ele>
        <time>2012-08-21T18:11:51Z</time>
      </trkpt>
      <trkpt lat="59.9928426" lon="17.7611947">
        <ele>49.6453</ele>
        <time>2012-08-21T18:11:57Z</time>
      </trkpt>
      <trkpt lat="59.992841" lon="17.7610999">
        <ele>49.1646</ele>
        <time>2012-08-21T18:11:59Z</time>
      </trkpt>
      <trkpt lat="59.992855" lon="17.7606791">
        <ele>53.4905</ele>
        <time>2012-08-21T18:12:05Z</time>
      </trkpt>
      <trkpt lat="59.9928794" lon="17.7603954">
        <ele>54.4518</ele>
        <time>2012-08-21T18:12:11Z</time>
      </trkpt>
      <trkpt lat="59.9928859" lon="17.7601455">
        <ele>53.4905</ele>
        <time>2012-08-21T18:12:16Z</time>
      </trkpt>
      <trkpt lat="59.992895" lon="17.7599769">
        <ele>51.0872</ele>
        <time>2012-08-21T18:12:20Z</time>
      </trkpt>
      <trkpt lat="59.9928665" lon="17.7597298">
        <ele>49.6453</ele>
        <time>2012-08-21T18:12:25Z</time>
      </trkpt>
      <trkpt lat="59.9928431" lon="17.7595358">
        <ele>49.1646</ele>
        <time>2012-08-21T18:12:29Z</time>
      </trkpt>
      <trkpt lat="59.9928229" lon="17.7593068">
        <ele>48.684</ele>
        <time>2012-08-21T18:12:34Z</time>
      </trkpt>
      <trkpt lat="59.992755" lon="17.7590158">
        <ele>50.6066</ele>
        <time>2012-08-21T18:12:40Z</time>
      </trkpt>
      <trkpt lat="59.9927061" lon="17.7587974">
        <ele>51.5679</ele>
        <time>2012-08-21T18:12:45Z</time>
      </trkpt>
      <trkpt lat="59.9926644" lon="17.7585824">
        <ele>51.0872</ele>
        <time>2012-08-21T18:12:50Z</time>
      </trkpt>
      <trkpt lat="59.9926255" lon="17.7583568">
        <ele>51.5679</ele>
        <time>2012-08-21T18:12:55Z</time>
      </trkpt>
      <trkpt lat="59.9925718" lon="17.7581011">
        <ele>51.0872</ele>
        <time>2012-08-21T18:13:01Z</time>
      </trkpt>
      <trkpt lat="59.9925298" lon="17.7578787">
        <ele>52.0486</ele>
        <time>2012-08-21T18:13:06Z</time>
      </trkpt>
      <trkpt lat="59.9925058" lon="17.757706">
        <ele>52.0486</ele>
        <time>2012-08-21T18:13:10Z</time>
      </trkpt>
      <trkpt lat="59.9924535" lon="17.7574525">
        <ele>51.5679</ele>
        <time>2012-08-21T18:13:16Z</time>
      </trkpt>
      <trkpt lat="59.9924161" lon="17.7572613">
        <ele>50.6066</ele>
        <time>2012-08-21T18:13:20Z</time>
      </trkpt>
      <trkpt lat="59.9923836" lon="17.7570594">
        <ele>51.0872</ele>
        <time>2012-08-21T18:13:24Z</time>
      </trkpt>
      <trkpt lat="59.9923216" lon="17.7568053">
        <ele>52.0486</ele>
        <time>2012-08-21T18:13:30Z</time>
      </trkpt>
      <trkpt lat="59.9922857" lon="17.7566564">
        <ele>53.0098</ele>
        <time>2012-08-21T18:13:34Z</time>
      </trkpt>
      <trkpt lat="59.9922042" lon="17.7563658">
        <ele>54.9324</ele>
        <time>2012-08-21T18:13:41Z</time>
      </trkpt>
      <trkpt lat="59.9921423" lon="17.7560814">
        <ele>53.9712</ele>
        <time>2012-08-21T18:13:47Z</time>
      </trkpt>
      <trkpt lat="59.9920999" lon="17.7559125">
        <ele>53.4905</ele>
        <time>2012-08-21T18:13:52Z</time>
      </trkpt>
      <trkpt lat="59.9920675" lon="17.7557352">
        <ele>53.4905</ele>
        <time>2012-08-21T18:13:56Z</time>
      </trkpt>
      <trkpt lat="59.9920143" lon="17.7554871">
        <ele>52.5292</ele>
        <time>2012-08-21T18:14:02Z</time>
      </trkpt>
      <trkpt lat="59.9919651" lon="17.7552945">
        <ele>53.4905</ele>
        <time>2012-08-21T18:14:07Z</time>
      </trkpt>
      <trkpt lat="59.9919318" lon="17.7551152">
        <ele>54.4518</ele>
        <time>2012-08-21T18:14:11Z</time>
      </trkpt>
      <trkpt lat="59.9918841" lon="17.754863">
        <ele>55.4131</ele>
        <time>2012-08-21T18:14:17Z</time>
      </trkpt>
      <trkpt lat="59.9918273" lon="17.7545922">
        <ele>54.9324</ele>
        <time>2012-08-21T18:14:23Z</time>
      </trkpt>
      <trkpt lat="59.9917639" lon="17.7542911">
        <ele>55.8938</ele>
        <time>2012-08-21T18:14:30Z</time>
      </trkpt>
      <trkpt lat="59.9917163" lon="17.7540628">
        <ele>56.3745</ele>
        <time>2012-08-21T18:14:35Z</time>
      </trkpt>
      <trkpt lat="59.9916579" lon="17.7537932">
        <ele>56.3745</ele>
        <time>2012-08-21T18:14:42Z</time>
      </trkpt>
      <trkpt lat="59.9915967" lon="17.7534906">
        <ele>57.8165</ele>
        <time>2012-08-21T18:14:49Z</time>
      </trkpt>
      <trkpt lat="59.9915375" lon="17.7532069">
        <ele>56.3745</ele>
        <time>2012-08-21T18:14:56Z</time>
      </trkpt>
      <trkpt lat="59.9914916" lon="17.7530013">
        <ele>57.3358</ele>
        <time>2012-08-21T18:15:01Z</time>
      </trkpt>
      <trkpt lat="59.991432" lon="17.7527221">
        <ele>58.2971</ele>
        <time>2012-08-21T18:15:08Z</time>
      </trkpt>
      <trkpt lat="59.9913821" lon="17.7524589">
        <ele>59.2584</ele>
        <time>2012-08-21T18:15:14Z</time>
      </trkpt>
      <trkpt lat="59.991329" lon="17.7522051">
        <ele>59.7391</ele>
        <time>2012-08-21T18:15:20Z</time>
      </trkpt>
      <trkpt lat="59.9912871" lon="17.7520009">
        <ele>59.7391</ele>
        <time>2012-08-21T18:15:25Z</time>
      </trkpt>
      <trkpt lat="59.9912321" lon="17.7517366">
        <ele>60.2197</ele>
        <time>2012-08-21T18:15:32Z</time>
      </trkpt>
      <trkpt lat="59.9911922" lon="17.7515094">
        <ele>59.7391</ele>
        <time>2012-08-21T18:15:38Z</time>
      </trkpt>
      <trkpt lat="59.9911568" lon="17.7512193">
        <ele>60.7003</ele>
        <time>2012-08-21T18:15:45Z</time>
      </trkpt>
      <trkpt lat="59.9911467" lon="17.750965">
        <ele>60.7003</ele>
        <time>2012-08-21T18:15:51Z</time>
      </trkpt>
      <trkpt lat="59.991158" lon="17.7507386">
        <ele>59.7391</ele>
        <time>2012-08-21T18:15:57Z</time>
      </trkpt>
      <trkpt lat="59.9911678" lon="17.7504572">
        <ele>58.2971</ele>
        <time>2012-08-21T18:16:04Z</time>
      </trkpt>
      <trkpt lat="59.9911623" lon="17.7503294">
        <ele>58.7777</ele>
        <time>2012-08-21T18:16:07Z</time>
      </trkpt>
      <trkpt lat="59.9911667" lon="17.7500926">
        <ele>58.7777</ele>
        <time>2012-08-21T18:16:12Z</time>
      </trkpt>
      <trkpt lat="59.9911802" lon="17.749849">
        <ele>59.2584</ele>
        <time>2012-08-21T18:16:17Z</time>
      </trkpt>
      <trkpt lat="59.9911854" lon="17.7495656">
        <ele>59.7391</ele>
        <time>2012-08-21T18:16:22Z</time>
      </trkpt>
      <trkpt lat="59.9911977" lon="17.7493473">
        <ele>59.2584</ele>
        <time>2012-08-21T18:16:27Z</time>
      </trkpt>
      <trkpt lat="59.9912207" lon="17.7491126">
        <ele>58.7777</ele>
        <time>2012-08-21T18:16:32Z</time>
      </trkpt>
      <trkpt lat="59.9912414" lon="17.748823">
        <ele>59.2584</ele>
        <time>2012-08-21T18:16:37Z</time>
      </trkpt>
      <trkpt lat="59.991303" lon="17.7485489">
        <ele>59.7391</ele>
        <time>2012-08-21T18:16:43Z</time>
      </trkpt>
      <trkpt lat="59.9913762" lon="17.7482444">
        <ele>63.1036</ele>
        <time>2012-08-21T18:16:49Z</time>
      </trkpt>
      <trkpt lat="59.9914454" lon="17.7480314">
        <ele>62.6229</ele>
        <time>2012-08-21T18:16:55Z</time>
      </trkpt>
      <trkpt lat="59.9914889" lon="17.7478098">
        <ele>58.7777</ele>
        <time>2012-08-21T18:17:01Z</time>
      </trkpt>
      <trkpt lat="59.9915222" lon="17.7476219">
        <ele>56.3745</ele>
        <time>2012-08-21T18:17:06Z</time>
      </trkpt>
      <trkpt lat="59.9915701" lon="17.7474255">
        <ele>55.8938</ele>
        <time>2012-08-21T18:17:11Z</time>
      </trkpt>
      <trkpt lat="59.9915962" lon="17.7472132">
        <ele>53.9712</ele>
        <time>2012-08-21T18:17:16Z</time>
      </trkpt>
      <trkpt lat="59.9916245" lon="17.7469402">
        <ele>54.9324</ele>
        <time>2012-08-21T18:17:21Z</time>
      </trkpt>
      <trkpt lat="59.9916563" lon="17.7467028">
        <ele>54.4518</ele>
        <time>2012-08-21T18:17:26Z</time>
      </trkpt>
      <trkpt lat="59.9916696" lon="17.7464227">
        <ele>54.9324</ele>
        <time>2012-08-21T18:17:30Z</time>
      </trkpt>
      <trkpt lat="59.991676" lon="17.7461364">
        <ele>57.3358</ele>
        <time>2012-08-21T18:17:34Z</time>
      </trkpt>
      <trkpt lat="59.9917148" lon="17.7459223">
        <ele>57.8165</ele>
        <time>2012-08-21T18:17:38Z</time>
      </trkpt>
      <trkpt lat="59.9917304" lon="17.7456881">
        <ele>57.3358</ele>
        <time>2012-08-21T18:17:42Z</time>
      </trkpt>
      <trkpt lat="59.9917568" lon="17.7454864">
        <ele>57.3358</ele>
        <time>2012-08-21T18:17:46Z</time>
      </trkpt>
      <trkpt lat="59.9918074" lon="17.7453425">
        <ele>58.7777</ele>
        <time>2012-08-21T18:17:51Z</time>
      </trkpt>
      <trkpt lat="59.9918196" lon="17.7453078">
        <ele>59.7391</ele>
        <time>2012-08-21T18:17:52Z</time>
      </trkpt>
      <trkpt lat="59.9918612" lon="17.7450757">
        <ele>60.2197</ele>
        <time>2012-08-21T18:17:57Z</time>
      </trkpt>
      <trkpt lat="59.9918706" lon="17.7450206">
        <ele>60.2197</ele>
        <time>2012-08-21T18:17:58Z</time>
      </trkpt>
      <trkpt lat="59.9919265" lon="17.7447628">
        <ele>60.7003</ele>
        <time>2012-08-21T18:18:04Z</time>
      </trkpt>
      <trkpt lat="59.9919759" lon="17.7446094">
        <ele>60.2197</ele>
        <time>2012-08-21T18:18:08Z</time>
      </trkpt>
      <trkpt lat="59.9920323" lon="17.7443371">
        <ele>60.7003</ele>
        <time>2012-08-21T18:18:13Z</time>
      </trkpt>
      <trkpt lat="59.9920894" lon="17.7441733">
        <ele>59.7391</ele>
        <time>2012-08-21T18:18:18Z</time>
      </trkpt>
      <trkpt lat="59.9921715" lon="17.7440427">
        <ele>59.7391</ele>
        <time>2012-08-21T18:18:22Z</time>
      </trkpt>
      <trkpt lat="59.9922488" lon="17.7439149">
        <ele>56.8551</ele>
        <time>2012-08-21T18:18:27Z</time>
      </trkpt>
      <trkpt lat="59.9923071" lon="17.7437781">
        <ele>55.4131</ele>
        <time>2012-08-21T18:18:31Z</time>
      </trkpt>
      <trkpt lat="59.9923852" lon="17.743531">
        <ele>53.0098</ele>
        <time>2012-08-21T18:18:37Z</time>
      </trkpt>
      <trkpt lat="59.9924576" lon="17.7433329">
        <ele>52.0486</ele>
        <time>2012-08-21T18:18:42Z</time>
      </trkpt>
      <trkpt lat="59.9925058" lon="17.74313">
        <ele>52.5292</ele>
        <time>2012-08-21T18:18:46Z</time>
      </trkpt>
      <trkpt lat="59.9925628" lon="17.742787">
        <ele>53.9712</ele>
        <time>2012-08-21T18:18:52Z</time>
      </trkpt>
      <trkpt lat="59.9926141" lon="17.7424665">
        <ele>54.4518</ele>
        <time>2012-08-21T18:18:57Z</time>
      </trkpt>
      <trkpt lat="59.9926695" lon="17.7421729">
        <ele>54.4518</ele>
        <time>2012-08-21T18:19:03Z</time>
      </trkpt>
      <trkpt lat="59.9927103" lon="17.7419118">
        <ele>54.9324</ele>
        <time>2012-08-21T18:19:08Z</time>
      </trkpt>
      <trkpt lat="59.9927691" lon="17.7415843">
        <ele>56.3745</ele>
        <time>2012-08-21T18:19:14Z</time>
      </trkpt>
      <trkpt lat="59.9927913" lon="17.7413076">
        <ele>57.3358</ele>
        <time>2012-08-21T18:19:19Z</time>
      </trkpt>
      <trkpt lat="59.9927813" lon="17.7411155">
        <ele>56.8551</ele>
        <time>2012-08-21T18:19:23Z</time>
      </trkpt>
      <trkpt lat="59.9927557" lon="17.7409107">
        <ele>56.8551</ele>
        <time>2012-08-21T18:19:27Z</time>
      </trkpt>
      <trkpt lat="59.9927023" lon="17.7406043">
        <ele>57.8165</ele>
        <time>2012-08-21T18:19:33Z</time>
      </trkpt>
      <trkpt lat="59.9926794" lon="17.7404877">
        <ele>57.3358</ele>
        <time>2012-08-21T18:19:36Z</time>
      </trkpt>
      <trkpt lat="59.9926147" lon="17.7401478">
        <ele>57.3358</ele>
        <time>2012-08-21T18:19:43Z</time>
      </trkpt>
      <trkpt lat="59.992585" lon="17.7398945">
        <ele>57.8165</ele>
        <time>2012-08-21T18:19:48Z</time>
      </trkpt>
      <trkpt lat="59.9925442" lon="17.7396271">
        <ele>59.7391</ele>
        <time>2012-08-21T18:19:54Z</time>
      </trkpt>
      <trkpt lat="59.9924981" lon="17.7392905">
        <ele>61.181</ele>
        <time>2012-08-21T18:20:01Z</time>
      </trkpt>
      <trkpt lat="59.992481" lon="17.7390622">
        <ele>60.2197</ele>
        <time>2012-08-21T18:20:06Z</time>
      </trkpt>
      <trkpt lat="59.9924609" lon="17.738784">
        <ele>59.7391</ele>
        <time>2012-08-21T18:20:12Z</time>
      </trkpt>
      <trkpt lat="59.9924407" lon="17.7385592">
        <ele>59.2584</ele>
        <time>2012-08-21T18:20:17Z</time>
      </trkpt>
      <trkpt lat="59.9924312" lon="17.7383125">
        <ele>58.2971</ele>
        <time>2012-08-21T18:20:22Z</time>
      </trkpt>
      <trkpt lat="59.9924104" lon="17.738048">
        <ele>55.8938</ele>
        <time>2012-08-21T18:20:27Z</time>
      </trkpt>
      <trkpt lat="59.9923689" lon="17.7377531">
        <ele>52.0486</ele>
        <time>2012-08-21T18:20:32Z</time>
      </trkpt>
      <trkpt lat="59.9922951" lon="17.7375552">
        <ele>49.6453</ele>
        <time>2012-08-21T18:20:37Z</time>
      </trkpt>
      <trkpt lat="59.9922733" lon="17.7375541">
        <ele>50.126</ele>
        <time>2012-08-21T18:20:38Z</time>
      </trkpt>
      <trkpt lat="59.9921702" lon="17.737577">
        <ele>44.8386</ele>
        <time>2012-08-21T18:20:43Z</time>
      </trkpt>
      <trkpt lat="59.9921516" lon="17.7375853">
        <ele>42.916</ele>
        <time>2012-08-21T18:20:44Z</time>
      </trkpt>
      <trkpt lat="59.9920122" lon="17.7375962">
        <ele>36.6675</ele>
        <time>2012-08-21T18:20:50Z</time>
      </trkpt>
      <trkpt lat="59.9918599" lon="17.7376081">
        <ele>31.8607</ele>
        <time>2012-08-21T18:20:56Z</time>
      </trkpt>
      <trkpt lat="59.9917248" lon="17.7375962">
        <ele>26.5736</ele>
        <time>2012-08-21T18:21:02Z</time>
      </trkpt>
      <trkpt lat="59.9915589" lon="17.737606">
        <ele>20.325</ele>
        <time>2012-08-21T18:21:09Z</time>
      </trkpt>
      <trkpt lat="59.9914595" lon="17.7375952">
        <ele>17.9218</ele>
        <time>2012-08-21T18:21:14Z</time>
      </trkpt>
      <trkpt lat="59.9913348" lon="17.7376343">
        <ele>15.0377</ele>
        <time>2012-08-21T18:21:20Z</time>
      </trkpt>
      <trkpt lat="59.9911839" lon="17.7377307">
        <ele>13.1151</ele>
        <time>2012-08-21T18:21:27Z</time>
      </trkpt>
      <trkpt lat="59.9910968" lon="17.7377643">
        <ele>12.6344</ele>
        <time>2012-08-21T18:21:31Z</time>
      </trkpt>
      <trkpt lat="59.9910117" lon="17.7378205">
        <ele>11.6732</ele>
        <time>2012-08-21T18:21:35Z</time>
      </trkpt>
      <trkpt lat="59.9908737" lon="17.7379007">
        <ele>6.38586</ele>
        <time>2012-08-21T18:21:42Z</time>
      </trkpt>
      <trkpt lat="59.9908374" lon="17.7379209">
        <ele>4.94385</ele>
        <time>2012-08-21T18:21:44Z</time>
      </trkpt>
      <trkpt lat="59.9907535" lon="17.737925">
        <ele>0.618042</ele>
        <time>2012-08-21T18:21:48Z</time>
      </trkpt>
      <trkpt lat="59.9906244" lon="17.7379708">
        <ele>0</ele>
        <time>2012-08-21T18:21:54Z</time>
      </trkpt>
      <trkpt lat="59.9906047" lon="17.7379852">
        <ele>0</ele>
        <time>2012-08-21T18:21:55Z</time>
      </trkpt>
      <trkpt lat="59.9904421" lon="17.7380816">
        <ele>0</ele>
        <time>2012-08-21T18:22:01Z</time>
      </trkpt>
      <trkpt lat="59.9903963" lon="17.7381055">
        <ele>0</ele>
        <time>2012-08-21T18:22:03Z</time>
      </trkpt>
      <trkpt lat="59.9903547" lon="17.7381131">
        <ele>0</ele>
        <time>2012-08-21T18:22:05Z</time>
      </trkpt>
      <trkpt lat="59.9902112" lon="17.7381816">
        <ele>0</ele>
        <time>2012-08-21T18:22:11Z</time>
      </trkpt>
      <trkpt lat="59.9901214" lon="17.7382494">
        <ele>0</ele>
        <time>2012-08-21T18:22:14Z</time>
      </trkpt>
      <trkpt lat="59.9899386" lon="17.738296">
        <ele>0.618042</ele>
        <time>2012-08-21T18:22:21Z</time>
      </trkpt>
      <trkpt lat="59.9897879" lon="17.738324">
        <ele>2.06006</ele>
        <time>2012-08-21T18:22:27Z</time>
      </trkpt>
      <trkpt lat="59.9896432" lon="17.7383654">
        <ele>1.57935</ele>
        <time>2012-08-21T18:22:33Z</time>
      </trkpt>
      <trkpt lat="59.989482" lon="17.7384622">
        <ele>3.50195</ele>
        <time>2012-08-21T18:22:39Z</time>
      </trkpt>
      <trkpt lat="59.9893465" lon="17.7385607">
        <ele>5.42456</ele>
        <time>2012-08-21T18:22:44Z</time>
      </trkpt>
      <trkpt lat="59.9892104" lon="17.7386555">
        <ele>8.78918</ele>
        <time>2012-08-21T18:22:49Z</time>
      </trkpt>
      <trkpt lat="59.9890874" lon="17.7387534">
        <ele>12.1538</ele>
        <time>2012-08-21T18:22:54Z</time>
      </trkpt>
      <trkpt lat="59.988944" lon="17.7388649">
        <ele>14.557</ele>
        <time>2012-08-21T18:23:00Z</time>
      </trkpt>
      <trkpt lat="59.9889138" lon="17.7388882">
        <ele>15.0377</ele>
        <time>2012-08-21T18:23:01Z</time>
      </trkpt>
      <trkpt lat="59.9887529" lon="17.7389927">
        <ele>15.999</ele>
        <time>2012-08-21T18:23:08Z</time>
      </trkpt>
      <trkpt lat="59.9886149" lon="17.7390912">
        <ele>17.9218</ele>
        <time>2012-08-21T18:23:13Z</time>
      </trkpt>
      <trkpt lat="59.9885286" lon="17.7390993">
        <ele>18.4023</ele>
        <time>2012-08-21T18:23:17Z</time>
      </trkpt>
      <trkpt lat="59.9884028" lon="17.739158">
        <ele>20.325</ele>
        <time>2012-08-21T18:23:22Z</time>
      </trkpt>
      <trkpt lat="59.988322" lon="17.7391849">
        <ele>19.8444</ele>
        <time>2012-08-21T18:23:25Z</time>
      </trkpt>
      <trkpt lat="59.9881647" lon="17.7392014">
        <ele>18.8831</ele>
        <time>2012-08-21T18:23:31Z</time>
      </trkpt>
      <trkpt lat="59.9881203" lon="17.7392031">
        <ele>16.4797</ele>
        <time>2012-08-21T18:23:33Z</time>
      </trkpt>
      <trkpt lat="59.9879515" lon="17.7392485">
        <ele>15.0377</ele>
        <time>2012-08-21T18:23:39Z</time>
      </trkpt>
      <trkpt lat="59.9878192" lon="17.7392769">
        <ele>14.557</ele>
        <time>2012-08-21T18:23:44Z</time>
      </trkpt>
      <trkpt lat="59.9876446" lon="17.7393091">
        <ele>11.1925</ele>
        <time>2012-08-21T18:23:51Z</time>
      </trkpt>
      <trkpt lat="59.9876046" lon="17.739316">
        <ele>9.2699</ele>
        <time>2012-08-21T18:23:53Z</time>
      </trkpt>
      <trkpt lat="59.9874678" lon="17.7392776">
        <ele>6.38586</ele>
        <time>2012-08-21T18:23:59Z</time>
      </trkpt>
      <trkpt lat="59.9874449" lon="17.7392761">
        <ele>6.38586</ele>
        <time>2012-08-21T18:24:00Z</time>
      </trkpt>
      <trkpt lat="59.9873071" lon="17.7392694">
        <ele>7.34717</ele>
        <time>2012-08-21T18:24:05Z</time>
      </trkpt>
      <trkpt lat="59.9871321" lon="17.7392108">
        <ele>10.7118</ele>
        <time>2012-08-21T18:24:11Z</time>
      </trkpt>
      <trkpt lat="59.986959" lon="17.7390944">
        <ele>14.0764</ele>
        <time>2012-08-21T18:24:18Z</time>
      </trkpt>
      <trkpt lat="59.98682" lon="17.7389616">
        <ele>16.4797</ele>
        <time>2012-08-21T18:24:24Z</time>
      </trkpt>
      <trkpt lat="59.9866906" lon="17.7388571">
        <ele>18.4023</ele>
        <time>2012-08-21T18:24:29Z</time>
      </trkpt>
      <trkpt lat="59.9865709" lon="17.7387457">
        <ele>20.325</ele>
        <time>2012-08-21T18:24:34Z</time>
      </trkpt>
      <trkpt lat="59.9864037" lon="17.7385939">
        <ele>19.3638</ele>
        <time>2012-08-21T18:24:41Z</time>
      </trkpt>
      <trkpt lat="59.9862441" lon="17.7385244">
        <ele>20.8057</ele>
        <time>2012-08-21T18:24:47Z</time>
      </trkpt>
      <trkpt lat="59.9860578" lon="17.7384421">
        <ele>21.2864</ele>
        <time>2012-08-21T18:24:54Z</time>
      </trkpt>
      <trkpt lat="59.9858997" lon="17.7383521">
        <ele>21.2864</ele>
        <time>2012-08-21T18:25:00Z</time>
      </trkpt>
      <trkpt lat="59.9857461" lon="17.7382949">
        <ele>18.8831</ele>
        <time>2012-08-21T18:25:06Z</time>
      </trkpt>
      <trkpt lat="59.9855961" lon="17.7382381">
        <ele>16.4797</ele>
        <time>2012-08-21T18:25:12Z</time>
      </trkpt>
      <trkpt lat="59.9854612" lon="17.7381951">
        <ele>15.5184</ele>
        <time>2012-08-21T18:25:17Z</time>
      </trkpt>
      <trkpt lat="59.9853253" lon="17.7381717">
        <ele>14.0764</ele>
        <time>2012-08-21T18:25:22Z</time>
      </trkpt>
      <trkpt lat="59.9851826" lon="17.7381654">
        <ele>10.2312</ele>
        <time>2012-08-21T18:25:28Z</time>
      </trkpt>
      <trkpt lat="59.9850316" lon="17.7381308">
        <ele>9.75061</ele>
        <time>2012-08-21T18:25:34Z</time>
      </trkpt>
      <trkpt lat="59.9849149" lon="17.7381062">
        <ele>8.78918</ele>
        <time>2012-08-21T18:25:39Z</time>
      </trkpt>
      <trkpt lat="59.9847621" lon="17.7380462">
        <ele>7.82788</ele>
        <time>2012-08-21T18:25:45Z</time>
      </trkpt>
      <trkpt lat="59.984605" lon="17.7379662">
        <ele>8.30859</ele>
        <time>2012-08-21T18:25:51Z</time>
      </trkpt>
      <trkpt lat="59.9844192" lon="17.7379095">
        <ele>9.75061</ele>
        <time>2012-08-21T18:25:57Z</time>
      </trkpt>
      <trkpt lat="59.9842833" lon="17.7378629">
        <ele>10.7118</ele>
        <time>2012-08-21T18:26:02Z</time>
      </trkpt>
      <trkpt lat="59.9841607" lon="17.7378477">
        <ele>7.82788</ele>
        <time>2012-08-21T18:26:08Z</time>
      </trkpt>
      <trkpt lat="59.9840205" lon="17.737864">
        <ele>5.90527</ele>
        <time>2012-08-21T18:26:14Z</time>
      </trkpt>
      <trkpt lat="59.9838601" lon="17.7379231">
        <ele>5.42456</ele>
        <time>2012-08-21T18:26:20Z</time>
      </trkpt>
      <trkpt lat="59.9837212" lon="17.7379644">
        <ele>6.38586</ele>
        <time>2012-08-21T18:26:25Z</time>
      </trkpt>
      <trkpt lat="59.9835643" lon="17.7380267">
        <ele>6.86646</ele>
        <time>2012-08-21T18:26:31Z</time>
      </trkpt>
      <trkpt lat="59.9834194" lon="17.738036">
        <ele>7.82788</ele>
        <time>2012-08-21T18:26:37Z</time>
      </trkpt>
      <trkpt lat="59.983368" lon="17.7380365">
        <ele>8.78918</ele>
        <time>2012-08-21T18:26:39Z</time>
      </trkpt>
      <trkpt lat="59.9832366" lon="17.738065">
        <ele>7.82788</ele>
        <time>2012-08-21T18:26:44Z</time>
      </trkpt>
      <trkpt lat="59.9830704" lon="17.7381012">
        <ele>9.75061</ele>
        <time>2012-08-21T18:26:50Z</time>
      </trkpt>
      <trkpt lat="59.9828997" lon="17.7380536">
        <ele>11.1925</ele>
        <time>2012-08-21T18:26:56Z</time>
      </trkpt>
      <trkpt lat="59.9828279" lon="17.738051">
        <ele>10.2312</ele>
        <time>2012-08-21T18:26:59Z</time>
      </trkpt>
      <trkpt lat="59.9827019" lon="17.7380555">
        <ele>9.2699</ele>
        <time>2012-08-21T18:27:04Z</time>
      </trkpt>
      <trkpt lat="59.982591" lon="17.738061">
        <ele>9.75061</ele>
        <time>2012-08-21T18:27:08Z</time>
      </trkpt>
      <trkpt lat="59.9824612" lon="17.73808">
        <ele>10.7118</ele>
        <time>2012-08-21T18:27:13Z</time>
      </trkpt>
      <trkpt lat="59.9823026" lon="17.7381428">
        <ele>12.6344</ele>
        <time>2012-08-21T18:27:19Z</time>
      </trkpt>
      <trkpt lat="59.982181" lon="17.738182">
        <ele>14.557</ele>
        <time>2012-08-21T18:27:23Z</time>
      </trkpt>
      <trkpt lat="59.9820781" lon="17.7382395">
        <ele>14.0764</ele>
        <time>2012-08-21T18:27:27Z</time>
      </trkpt>
      <trkpt lat="59.9819709" lon="17.7382769">
        <ele>15.999</ele>
        <time>2012-08-21T18:27:31Z</time>
      </trkpt>
      <trkpt lat="59.981897" lon="17.7383048">
        <ele>15.999</ele>
        <time>2012-08-21T18:27:34Z</time>
      </trkpt>
      <trkpt lat="59.981771" lon="17.7383426">
        <ele>19.8444</ele>
        <time>2012-08-21T18:27:39Z</time>
      </trkpt>
      <trkpt lat="59.9816188" lon="17.7384012">
        <ele>18.4023</ele>
        <time>2012-08-21T18:27:45Z</time>
      </trkpt>
      <trkpt lat="59.9814801" lon="17.7384204">
        <ele>19.8444</ele>
        <time>2012-08-21T18:27:50Z</time>
      </trkpt>
      <trkpt lat="59.9813376" lon="17.7384742">
        <ele>19.3638</ele>
        <time>2012-08-21T18:27:55Z</time>
      </trkpt>
      <trkpt lat="59.9812018" lon="17.7384918">
        <ele>16.9604</ele>
        <time>2012-08-21T18:28:00Z</time>
      </trkpt>
      <trkpt lat="59.9810546" lon="17.7385379">
        <ele>16.4797</ele>
        <time>2012-08-21T18:28:05Z</time>
      </trkpt>
      <trkpt lat="59.9809195" lon="17.73861">
        <ele>15.999</ele>
        <time>2012-08-21T18:28:09Z</time>
      </trkpt>
      <trkpt lat="59.9808025" lon="17.7386756">
        <ele>13.5958</ele>
        <time>2012-08-21T18:28:13Z</time>
      </trkpt>
      <trkpt lat="59.9806174" lon="17.7387036">
        <ele>14.0764</ele>
        <time>2012-08-21T18:28:19Z</time>
      </trkpt>
      <trkpt lat="59.9804626" lon="17.7387353">
        <ele>12.1538</ele>
        <time>2012-08-21T18:28:24Z</time>
      </trkpt>
      <trkpt lat="59.9803371" lon="17.7387135">
        <ele>11.6732</ele>
        <time>2012-08-21T18:28:28Z</time>
      </trkpt>
      <trkpt lat="59.980186" lon="17.738684">
        <ele>10.2312</ele>
        <time>2012-08-21T18:28:33Z</time>
      </trkpt>
      <trkpt lat="59.9800599" lon="17.7386857">
        <ele>8.78918</ele>
        <time>2012-08-21T18:28:37Z</time>
      </trkpt>
      <trkpt lat="59.9798845" lon="17.7387261">
        <ele>9.2699</ele>
        <time>2012-08-21T18:28:43Z</time>
      </trkpt>
      <trkpt lat="59.9797393" lon="17.7387802">
        <ele>10.7118</ele>
        <time>2012-08-21T18:28:48Z</time>
      </trkpt>
      <trkpt lat="59.9797146" lon="17.738782">
        <ele>10.2312</ele>
        <time>2012-08-21T18:28:49Z</time>
      </trkpt>
      <trkpt lat="59.9795214" lon="17.7389306">
        <ele>9.75061</ele>
        <time>2012-08-21T18:28:55Z</time>
      </trkpt>
      <trkpt lat="59.979357" lon="17.7390461">
        <ele>9.75061</ele>
        <time>2012-08-21T18:29:00Z</time>
      </trkpt>
      <trkpt lat="59.9792123" lon="17.7391376">
        <ele>12.6344</ele>
        <time>2012-08-21T18:29:04Z</time>
      </trkpt>
      <trkpt lat="59.9790389" lon="17.739233">
        <ele>14.0764</ele>
        <time>2012-08-21T18:29:09Z</time>
      </trkpt>
      <trkpt lat="59.9789807" lon="17.7392725">
        <ele>15.0377</ele>
        <time>2012-08-21T18:29:11Z</time>
      </trkpt>
    </trkseg>
  </trk>
</gpx>